Time;durP1;ratioP1;P1;durP2;ratioP2;P2;SDS_P1;SDS_P2;PMS_P1;PMS_P2;Temp;Humidity;BMP_temperature;BMP_pressure;BME280_temperature;BME280_humidity;BME280_pressure;Samples;Min_cycle;Max_cycle;Signal;HPM_P1;HPM_P2
2022/06/29 00:02:20;;;;;;;;;;;;;;;17.39;59.34;100719.03;4960866;29;1066;-48
2022/06/29 00:04:46;;;;;;;;;;;;;;;16.82;59.82;100723.78;4966357;28;1089;-47
2022/06/29 00:07:11;;;;;;;;;;;;;;;16.72;59.15;100729.31;4959809;29;1906;-49
2022/06/29 00:09:37;;;;;;;;;;;;;;;16.57;59.00;100721.91;4960722;28;1018;-48
2022/06/29 00:12:02;;;;;;;;;;;;;;;16.52;58.77;100719.13;4960461;29;979;-51
2022/06/29 00:14:28;;;;;;;;;;;;;;;16.43;58.62;100725.16;4960147;28;1176;-48
2022/06/29 00:16:53;;;;;;;;;;;;;;;16.40;58.31;100728.47;4960584;28;1011;-49
2022/06/29 00:19:18;;;;;;;;;;;;;;;16.36;58.36;100721.88;4959819;28;1149;-49
2022/06/29 00:21:44;;;;;;;;;;;;;;;16.30;58.20;100722.97;4960097;28;861;-48
2022/06/29 00:24:09;;;;;;;;;;;;;;;17.28;58.98;100720.97;4961222;28;1208;-47
2022/06/29 00:26:35;;;;;;;;;;;;;;;17.16;59.53;100719.66;4960510;29;1915;-45
2022/06/29 00:29:00;;;;;;;;;;;;;;;16.75;59.62;100724.06;4960518;28;1013;-47
2022/06/29 00:31:25;;;;;;;;;;;;;;;16.65;59.07;100728.75;4960077;28;1022;-46
2022/06/29 00:33:51;;;;;;;;;;;;;;;16.53;58.73;100726.28;4960023;28;940;-48
2022/06/29 00:36:16;;;;;;;;;;;;;;;16.49;58.48;100733.41;4958269;28;1141;-48
2022/06/29 00:38:42;;;;;;;;;;;;;;;16.45;58.15;100732.31;4959994;29;1359;-48
2022/06/29 00:41:07;;;;;;;;;;;;;;;16.38;58.19;100718.84;4960121;28;1042;-46
2022/06/29 00:43:39;;;;;;;;;;;;;;;16.30;57.89;100716.66;4960120;28;1073;-46
2022/06/29 00:46:05;;;;;;;;;;;;;;;16.27;57.77;100725.44;4958538;28;848;-48
2022/06/29 00:48:30;;;;;;;;;;;;;;;16.59;58.95;100720.53;4959475;28;1910;-50
2022/06/29 00:50:56;;;;;;;;;;;;;;;17.53;58.97;100711.00;4959492;28;1094;-45
2022/06/29 00:53:22;;;;;;;;;;;;;;;16.88;59.40;100717.22;4942467;28;1066;-47
2022/06/29 00:55:47;;;;;;;;;;;;;;;16.66;59.42;100706.53;4942780;29;1174;-51
2022/06/29 00:58:13;;;;;;;;;;;;;;;16.60;58.79;100705.69;4942313;28;1051;-51
2022/06/29 01:00:39;;;;;;;;;;;;;;;16.52;58.80;100708.16;4959578;29;1070;-50
2022/06/29 01:03:04;;;;;;;;;;;;;;;16.45;58.58;100705.69;4959670;28;975;-48
2022/06/29 01:05:30;;;;;;;;;;;;;;;16.41;58.36;100708.16;4947450;29;1126;-51
2022/06/29 01:07:55;;;;;;;;;;;;;;;16.34;58.29;100710.38;4959094;28;1906;-50
2022/06/29 01:10:21;;;;;;;;;;;;;;;16.28;57.98;100713.38;4959051;29;987;-47
2022/06/29 01:12:48;;;;;;;;;;;;;;;16.29;57.84;100712.28;4959744;28;1216;-48
2022/06/29 01:15:13;;;;;;;;;;;;;;;16.21;57.96;100713.63;4959185;29;1039;-45
2022/06/29 01:17:38;;;;;;;;;;;;;;;17.45;58.84;100717.88;4959595;28;1275;-44
2022/06/29 01:20:04;;;;;;;;;;;;;;;17.00;59.54;100713.34;4960894;28;975;-47
2022/06/29 01:22:30;;;;;;;;;;;;;;;16.74;59.28;100716.13;4955177;28;1078;-44
2022/06/29 01:24:55;;;;;;;;;;;;;;;16.58;58.81;100712.56;4959133;28;912;-51
2022/06/29 01:27:22;;;;;;;;;;;;;;;16.49;58.78;100708.72;4959131;29;1981;-47
2022/06/29 01:29:48;;;;;;;;;;;;;;;16.42;58.46;100700.75;4959134;28;951;-49
2022/06/29 01:32:13;;;;;;;;;;;;;;;16.42;58.03;100700.75;4959248;28;971;-46
2022/06/29 01:34:39;;;;;;;;;;;;;;;16.34;57.86;100706.78;4958472;28;998;-46
2022/06/29 01:37:04;;;;;;;;;;;;;;;16.24;58.01;100707.59;4958334;29;829;-48
2022/06/29 01:39:30;;;;;;;;;;;;;;;16.22;57.69;100707.06;4958736;28;1109;-47
2022/06/29 01:41:56;;;;;;;;;;;;;;;16.20;57.67;100707.34;4958605;28;1057;-50
2022/06/29 01:44:21;;;;;;;;;;;;;;;17.53;58.64;100719.25;4959133;29;1015;-49
2022/06/29 01:46:46;;;;;;;;;;;;;;;17.00;59.54;100718.84;4958478;28;1981;-49
2022/06/29 01:49:12;;;;;;;;;;;;;;;16.72;59.20;100716.41;4958690;28;1078;-49
2022/06/29 01:51:37;;;;;;;;;;;;;;;16.59;58.67;100714.19;4958004;28;1212;-47
2022/06/29 01:54:03;;;;;;;;;;;;;;;16.48;58.44;100726.28;4964704;28;956;-46
2022/06/29 01:56:28;;;;;;;;;;;;;;;16.40;58.61;100722.16;4957909;28;1014;-50
2022/06/29 01:58:54;;;;;;;;;;;;;;;16.35;58.53;100725.72;4958280;28;959;-44
2022/06/29 02:01:19;;;;;;;;;;;;;;;16.28;58.13;100716.94;4962593;28;1070;-46
2022/06/29 02:03:45;;;;;;;;;;;;;;;16.26;57.86;100713.66;4959159;28;1192;-47
2022/06/29 02:06:10;;;;;;;;;;;;;;;16.25;58.15;100710.06;4970125;28;846;-49
2022/06/29 02:08:36;;;;;;;;;;;;;;;17.54;58.72;100712.63;4958456;28;1981;-48
2022/06/29 02:11:01;;;;;;;;;;;;;;;16.87;59.48;100720.22;4957210;28;1126;-47
2022/06/29 02:13:27;;;;;;;;;;;;;;;16.65;59.25;100724.09;4958203;29;1105;-43
2022/06/29 02:15:52;;;;;;;;;;;;;;;16.53;59.01;100726.28;4957485;28;1541;-43
2022/06/29 02:18:18;;;;;;;;;;;;;;;16.47;58.50;100721.91;4958275;29;1078;-45
2022/06/29 02:20:43;;;;;;;;;;;;;;;16.41;58.28;100713.66;4954412;28;995;-47
2022/06/29 02:23:08;;;;;;;;;;;;;;;16.38;58.20;100716.13;4958452;28;1042;-47
2022/06/29 02:25:34;;;;;;;;;;;;;;;16.29;58.09;100718.59;4958759;29;1050;-46
2022/06/29 02:27:59;;;;;;;;;;;;;;;16.23;57.96;100722.44;4958095;28;1895;-48
2022/06/29 02:34:43;;;;;;;;;;;;;;;16.99;59.00;100725.47;4957968;28;1034;-49
2022/06/29 02:35:54;;;;;;;;;;;;;;;16.66;59.26;100713.91;4957763;28;1006;-46
2022/06/29 02:38:20;;;;;;;;;;;;;;;16.55;58.91;100713.09;4958286;28;1106;-46
2022/06/29 02:40:45;;;;;;;;;;;;;;;16.46;58.49;100710.09;4961510;28;943;-46
2022/06/29 02:43:11;;;;;;;;;;;;;;;16.43;58.42;100716.94;4958040;29;1121;-47
2022/06/29 02:45:36;;;;;;;;;;;;;;;16.36;58.33;100719.13;4960614;28;1035;-47
2022/06/29 02:48:02;;;;;;;;;;;;;;;16.29;58.16;100715.84;4957505;28;1964;-45
2022/06/29 02:50:27;;;;;;;;;;;;;;;16.31;58.01;100719.13;4958962;28;991;-47
2022/06/29 02:52:53;;;;;;;;;;;;;;;16.50;58.97;100715.84;4957807;28;1227;-48
2022/06/29 02:55:18;;;;;;;;;;;;;;;17.48;58.78;100716.50;4957954;28;1113;-46
2022/06/29 02:57:44;;;;;;;;;;;;;;;16.84;59.63;100718.03;4957912;29;1026;-46
2022/06/29 03:00:10;;;;;;;;;;;;;;;16.65;59.24;100723.25;4960941;28;967;-49
2022/06/29 03:02:36;;;;;;;;;;;;;;;16.55;58.97;100729.56;4959818;28;1054;-48
2022/06/29 03:05:01;;;;;;;;;;;;;;;16.48;58.80;100721.63;4957608;28;1046;-48
2022/06/29 03:07:26;;;;;;;;;;;;;;;16.43;58.55;100719.69;4963749;28;1910;-45
2022/06/29 03:09:52;;;;;;;;;;;;;;;16.40;58.48;100722.16;4961008;29;1077;-48
2022/06/29 03:12:17;;;;;;;;;;;;;;;16.34;58.27;100729.56;4966653;28;1153;-47
2022/06/29 03:14:43;;;;;;;;;;;;;;;16.26;58.41;100719.13;4962081;29;1042;-48
2022/06/29 03:17:08;;;;;;;;;;;;;;;16.23;58.27;100727.91;4961391;28;1439;-47
2022/06/29 03:19:34;;;;;;;;;;;;;;;16.24;58.24;100729.53;4961216;28;1239;-49
2022/06/29 03:21:59;;;;;;;;;;;;;;;16.78;59.32;100728.19;4961292;28;969;-51
2022/06/29 03:24:25;;;;;;;;;;;;;;;17.26;59.34;100723.19;4961418;29;1122;-49
2022/06/29 03:26:50;;;;;;;;;;;;;;;16.80;59.72;100716.94;4961276;28;1899;-50
2022/06/29 03:29:16;;;;;;;;;;;;;;;16.62;59.35;100713.66;4961612;28;1185;-50
2022/06/29 03:31:41;;;;;;;;;;;;;;;16.54;59.01;100709.53;4961302;28;889;-50
2022/06/29 03:34:07;;;;;;;;;;;;;;;16.45;59.05;100710.34;4961031;29;1121;-50
2022/06/29 03:36:32;;;;;;;;;;;;;;;16.40;58.42;100714.75;4960994;28;1078;-50
2022/06/29 03:38:57;;;;;;;;;;;;;;;16.37;58.24;100717.22;4961540;28;1073;-45
2022/06/29 03:41:23;;;;;;;;;;;;;;;16.29;58.54;100721.31;4961027;28;1039;-48
2022/06/29 03:43:48;;;;;;;;;;;;;;;16.29;58.12;100721.31;4961062;28;1019;-48
2022/06/29 03:46:14;;;;;;;;;;;;;;;16.20;58.49;100715.56;4961172;28;1010;-49
2022/06/29 03:48:39;;;;;;;;;;;;;;;16.53;59.06;100724.34;4960771;28;1914;-48
2022/06/29 03:51:05;;;;;;;;;;;;;;;17.29;59.63;100716.28;4960696;28;1459;-49
2022/06/29 03:53:30;;;;;;;;;;;;;;;16.75;60.06;100717.78;4960762;28;1230;-51
2022/06/29 03:55:57;;;;;;;;;;;;;;;16.61;59.49;100717.50;4960180;29;1053;-53
2022/06/29 03:58:22;;;;;;;;;;;;;;;16.53;59.17;100726.28;4960419;29;967;-50
2022/06/29 04:00:48;;;;;;;;;;;;;;;16.45;59.05;100724.09;4965983;28;1086;-49
2022/06/29 04:03:13;;;;;;;;;;;;;;;16.39;58.68;100715.84;4960765;28;1392;-49
2022/06/29 04:05:39;;;;;;;;;;;;;;;16.32;58.63;100720.78;4960997;28;1177;-48
2022/06/29 04:08:04;;;;;;;;;;;;;;;16.34;58.42;100713.09;4960324;29;1991;-49
2022/06/29 04:10:30;;;;;;;;;;;;;;;16.28;58.30;100725.16;4960364;28;920;-43
2022/06/29 04:12:55;;;;;;;;;;;;;;;16.23;58.31;100711.47;4960261;28;1030;-43
2022/06/29 04:15:20;;;;;;;;;;;;;;;16.20;58.42;100722.94;4960023;29;1102;-48
2022/06/29 04:17:46;;;;;;;;;;;;;;;16.99;59.65;100719.97;4960161;28;1145;-47
2022/06/29 04:21:05;;;;;;;;;;;;;;;17.16;59.86;100719.66;4960451;28;1050;-52
2022/06/29 04:22:59;;;;;;;;;;;;;;;16.73;60.12;100720.78;4955977;28;1547;-47
2022/06/29 04:25:24;;;;;;;;;;;;;;;16.63;59.45;100728.19;4960147;28;1181;-47
2022/06/29 04:27:50;;;;;;;;;;;;;;;16.51;59.25;100723.81;4942125;29;2063;-45
2022/06/29 04:30:15;;;;;;;;;;;;;;;16.46;59.03;100721.06;4960480;28;1188;-49
2022/06/29 04:32:41;;;;;;;;;;;;;;;16.40;58.95;100720.25;4959294;28;880;-47
2022/06/29 04:35:06;;;;;;;;;;;;;;;16.40;58.45;100716.69;4959362;29;1101;-49
2022/06/29 04:37:32;;;;;;;;;;;;;;;16.38;58.83;100714.22;4959569;28;1082;-49
2022/06/29 04:40:00;;;;;;;;;;;;;;;16.36;58.88;100721.88;4959673;29;1043;-52
2022/06/29 04:42:26;;;;;;;;;;;;;;;16.35;58.82;100720.22;4959677;28;1240;-44
2022/06/29 04:44:52;;;;;;;;;;;;;;;16.27;58.86;100717.22;4961648;28;1054;-49
2022/06/29 04:47:18;;;;;;;;;;;;;;;16.24;58.61;100726.81;4960199;28;1895;-51
2022/06/29 04:49:43;;;;;;;;;;;;;;;16.24;58.62;100727.66;4960119;29;1074;-51
2022/06/29 04:52:09;;;;;;;;;;;;;;;16.23;58.54;100738.91;4959143;29;995;-52
2022/06/29 04:54:34;;;;;;;;;;;;;;;16.20;58.14;100733.94;4965210;28;1083;-53
2022/06/29 04:56:59;;;;;;;;;;;;;;;16.56;59.34;100736.72;4959583;29;1062;-51
2022/06/29 04:59:25;;;;;;;;;;;;;;;17.49;59.65;100736.56;4963462;28;987;-47
2022/06/29 05:01:50;;;;;;;;;;;;;;;16.87;60.31;100736.69;4962661;28;1070;-46
2022/06/29 05:04:16;;;;;;;;;;;;;;;16.66;59.85;100731.25;4962526;28;998;-47
2022/06/29 05:06:41;;;;;;;;;;;;;;;16.57;59.48;100730.94;4958813;29;1910;-43
2022/06/29 05:09:07;;;;;;;;;;;;;;;16.50;59.08;100730.41;4965319;28;1054;-49
2022/06/29 05:11:32;;;;;;;;;;;;;;;16.46;59.14;100733.97;4960006;28;1031;-45
2022/06/29 05:13:58;;;;;;;;;;;;;;;16.40;58.88;100739.44;4959153;28;935;-44
2022/06/29 05:16:23;;;;;;;;;;;;;;;16.40;58.61;100735.88;4963364;28;1002;-48
2022/06/29 05:18:49;;;;;;;;;;;;;;;16.34;58.81;100729.56;4959019;28;1105;-48
2022/06/29 05:21:15;;;;;;;;;;;;;;;16.34;58.36;100740.56;4954966;28;1279;-49
2022/06/29 05:23:41;;;;;;;;;;;;;;;16.29;58.74;100740.53;4953468;28;1365;-49
2022/06/29 05:26:06;;;;;;;;;;;;;;;16.28;58.54;100725.16;4953245;28;1393;-47
2022/06/29 05:28:33;;;;;;;;;;;;;;;16.28;58.72;100740.81;4954595;28;1988;-48
2022/06/29 05:30:58;;;;;;;;;;;;;;;16.23;58.30;100733.41;4956225;28;1440;-46
2022/06/29 05:33:24;;;;;;;;;;;;;;;16.21;58.45;100736.41;4958119;29;1061;-49
2022/06/29 05:35:49;;;;;;;;;;;;;;;16.20;58.35;100728.44;4957290;28;1303;-48
2022/06/29 05:38:15;;;;;;;;;;;;;;;17.28;59.76;100722.91;4964580;28;1307;-44
2022/06/29 05:40:42;;;;;;;;;;;;;;;17.17;59.96;100730.34;4960962;28;1498;-47
2022/06/29 05:43:07;;;;;;;;;;;;;;;16.82;59.97;100739.47;4962506;28;979;-50
2022/06/29 05:45:33;;;;;;;;;;;;;;;16.69;59.82;100738.06;4957333;28;1211;-50
2022/06/29 05:47:58;;;;;;;;;;;;;;;16.64;59.47;100744.41;4965304;28;1910;-45
2022/06/29 05:50:24;;;;;;;;;;;;;;;16.69;59.25;100738.91;4959142;28;1334;-50
2022/06/29 05:52:49;;;;;;;;;;;;;;;16.55;59.25;100737.81;4940160;28;1253;-53
2022/06/29 05:55:15;;;;;;;;;;;;;;;17.14;59.30;100741.06;4963880;28;1169;-53
2022/06/29 05:57:40;;;;;;;;;;;;;;;17.26;57.80;100733.34;4958730;28;1110;-45
2022/06/29 06:00:06;;;;;;;;;;;;;;;16.80;56.15;100741.66;4957894;29;1114;-52
2022/06/29 06:02:38;;;;;;;;;;;;;;;18.16;56.53;100739.84;4942579;29;960;-46
2022/06/29 06:05:03;;;;;;;;;;;;;;;17.23;56.84;100745.72;4961469;28;1151;-51
2022/06/29 06:07:29;;;;;;;;;;;;;;;16.94;55.19;100745.50;4958379;28;1906;-49
2022/06/29 06:09:54;;;;;;;;;;;;;;;16.88;53.95;100754.81;4957444;28;1192;-47
2022/06/29 06:12:20;;;;;;;;;;;;;;;16.83;53.13;100754.81;4957819;29;1268;-48
2022/06/29 06:14:45;;;;;;;;;;;;;;;16.78;52.73;100758.41;4962744;28;1414;-52
2022/06/29 06:17:11;;;;;;;;;;;;;;;16.72;52.06;100757.59;4958391;28;1338;-49
2022/06/29 06:19:36;;;;;;;;;;;;;;;16.63;51.73;100750.97;4958603;28;1197;-51
2022/06/29 06:22:02;;;;;;;;;;;;;;;16.63;51.30;100756.47;4960752;28;1323;-50
2022/06/29 06:24:27;;;;;;;;;;;;;;;17.42;53.61;100758.88;4960978;28;1217;-50
2022/06/29 06:26:53;;;;;;;;;;;;;;;16.98;53.33;100757.56;4959374;28;1970;-52
2022/06/29 06:29:18;;;;;;;;;;;;;;;16.96;52.25;100757.03;4942377;29;1076;-52
2022/06/29 06:31:45;;;;;;;;;;;;;;;16.81;51.83;100746.03;4958068;29;1121;-49
2022/06/29 06:34:11;;;;;;;;;;;;;;;16.81;51.34;100748.78;4957839;29;1101;-54
2022/06/29 06:36:36;;;;;;;;;;;;;;;16.76;50.87;100747.69;4962266;28;1046;-50
2022/06/29 06:39:02;;;;;;;;;;;;;;;17.83;53.21;100746.91;4959365;28;1002;-50
2022/06/29 06:41:27;;;;;;;;;;;;;;;18.01;54.25;100743.50;4957319;29;1034;-48
2022/06/29 06:43:53;;;;;;;;;;;;;;;19.24;54.49;100746.41;4961507;28;1185;-48
2022/06/29 06:46:19;;;;;;;;;;;;;;;18.54;56.40;100742.06;4958914;28;1078;-51
2022/06/29 06:48:44;;;;;;;;;;;;;;;18.08;55.50;100737.72;4959620;28;1979;-51
2022/06/29 06:51:10;;;;;;;;;;;;;;;17.72;54.67;100741.41;4956108;29;1003;-51
2022/06/29 06:53:36;;;;;;;;;;;;;;;17.67;53.24;100735.97;4957746;29;1177;-46
2022/06/29 06:56:01;;;;;;;;;;;;;;;17.57;52.20;100739.59;4956512;29;1208;-53
2022/06/29 06:58:27;;;;;;;;;;;;;;;17.42;52.07;100748.69;4956795;28;1252;-50
2022/06/29 07:00:52;;;;;;;;;;;;;;;17.29;51.50;100741.03;4959442;28;1183;-50
2022/06/29 07:03:17;;;;;;;;;;;;;;;17.34;50.95;100746.53;4961901;28;1224;-51
2022/06/29 07:05:43;;;;;;;;;;;;;;;17.24;50.80;100743.81;4958137;28;1283;-50
2022/06/29 07:08:08;;;;;;;;;;;;;;;17.20;50.50;100749.03;4957131;28;1915;-44
2022/06/29 07:10:34;;;;;;;;;;;;;;;17.15;50.16;100750.97;4956964;28;1300;-51
2022/06/29 07:12:59;;;;;;;;;;;;;;;17.19;49.91;100749.31;4963722;28;983;-49
2022/06/29 07:15:25;;;;;;;;;;;;;;;17.15;49.82;100759.22;4962843;28;1004;-48
2022/06/29 07:17:50;;;;;;;;;;;;;;;17.57;50.89;100745.09;4961893;28;1149;-52
2022/06/29 07:20:16;;;;;;;;;;;;;;;17.57;51.99;100749.75;4957131;28;1030;-52
2022/06/29 07:22:41;;;;;;;;;;;;;;;17.34;51.35;100754.75;4963286;28;1014;-50
2022/06/29 07:25:07;;;;;;;;;;;;;;;17.21;50.99;100758.13;4958673;28;1077;-47
2022/06/29 07:27:32;;;;;;;;;;;;;;;17.13;50.70;100762.25;4959033;28;1910;-52
2022/06/29 07:29:58;;;;;;;;;;;;;;;17.16;50.32;100761.69;4955428;29;1300;-48
2022/06/29 07:32:23;;;;;;;;;;;;;;;17.10;50.09;100757.31;4958034;28;1216;-48
2022/06/29 07:34:49;;;;;;;;;;;;;;;17.15;49.77;100759.22;4956763;28;1375;-50
2022/06/29 07:37:14;;;;;;;;;;;;;;;17.06;49.56;100756.22;4956639;29;1026;-48
2022/06/29 07:39:40;;;;;;;;;;;;;;;17.08;49.11;100760.34;4956574;29;1465;-48
2022/06/29 07:42:05;;;;;;;;;;;;;;;17.09;49.05;100764.69;4962503;28;1592;-47
2022/06/29 07:44:31;;;;;;;;;;;;;;;17.58;49.87;100768.69;4955553;29;1468;-51
2022/06/29 07:46:56;;;;;;;;;;;;;;;17.49;51.58;100761.31;4956067;28;1902;-50
2022/06/29 07:49:22;;;;;;;;;;;;;;;17.31;51.11;100762.75;4955954;28;1312;-49
2022/06/29 07:51:47;;;;;;;;;;;;;;;17.28;50.73;100759.47;4955395;28;1394;-51
2022/06/29 07:54:13;;;;;;;;;;;;;;;17.23;50.12;100761.38;4956442;28;1120;-51
2022/06/29 07:56:38;;;;;;;;;;;;;;;17.37;50.04;100762.44;4959896;28;1433;-48
2022/06/29 07:59:04;;;;;;;;;;;;;;;17.18;50.01;100759.50;4959429;28;1544;-55
2022/06/29 08:01:29;;;;;;;;;;;;;;;17.16;49.88;100760.88;4959979;29;1457;-49
2022/06/29 08:03:55;;;;;;;;;;;;;;;17.17;49.32;100755.09;4960161;29;1201;-49
2022/06/29 08:06:21;;;;;;;;;;;;;;;17.07;49.87;100755.13;4961770;28;842;-52
2022/06/29 08:08:46;;;;;;;;;;;;;;;17.19;50.00;100757.56;4957260;29;1910;-49
2022/06/29 08:11:12;;;;;;;;;;;;;;;17.22;50.99;100755.09;4955716;29;1121;-52
2022/06/29 08:13:40;;;;;;;;;;;;;;;17.28;50.85;100759.47;4963059;28;1027;-52
2022/06/29 08:16:06;;;;;;;;;;;;;;;18.15;52.65;100748.41;4961543;28;1498;-53
2022/06/29 08:18:32;;;;;;;;;;;;;;;17.72;52.65;100755.16;4958212;28;962;-49
2022/06/29 08:20:57;;;;;;;;;;;;;;;17.60;51.83;100749.19;4957780;28;1335;-55
2022/06/29 08:23:23;;;;;;;;;;;;;;;17.53;51.03;100754.16;4958294;29;1469;-60
2022/06/29 08:25:48;;;;;;;;;;;;;;;17.49;50.49;100747.56;4958625;28;1252;-54
2022/06/29 08:28:14;;;;;;;;;;;;;;;17.38;50.22;100747.59;4959924;28;1918;-53
2022/06/29 08:30:39;;;;;;;;;;;;;;;17.39;49.95;100746.50;4960804;28;1362;-57
2022/06/29 08:33:05;;;;;;;;;;;;;;;17.35;49.55;100748.19;4961562;28;1283;-56
2022/06/29 08:35:30;;;;;;;;;;;;;;;17.52;50.36;100756.09;4956476;29;1215;-52
2022/06/29 08:37:56;;;;;;;;;;;;;;;17.58;51.16;100746.72;4959729;29;894;-50
2022/06/29 08:40:21;;;;;;;;;;;;;;;18.54;52.58;100747.59;4964164;28;1046;-51
2022/06/29 08:42:47;;;;;;;;;;;;;;;18.08;53.30;100754.22;4958639;29;1351;-52
2022/06/29 08:45:12;;;;;;;;;;;;;;;17.89;52.08;100748.50;4960412;28;1211;-57
2022/06/29 08:47:38;;;;;;;;;;;;;;;17.78;51.07;100751.31;4964548;28;1902;-55
2022/06/29 08:50:04;;;;;;;;;;;;;;;17.70;50.46;100745.59;4961800;28;1130;-54
2022/06/29 08:52:29;;;;;;;;;;;;;;;17.72;49.78;100751.63;4958366;28;1000;-53
2022/06/29 08:54:55;;;;;;;;;;;;;;;18.79;51.26;100741.03;4958452;28;1079;-51
2022/06/29 08:57:23;;;;;;;;;;;;;;;18.11;51.83;100737.94;4958078;29;1097;-53
2022/06/29 08:59:51;;;;;;;;;;;;;;;18.05;50.97;100743.78;4944675;28;1173;-55
2022/06/29 09:02:16;;;;;;;;;;;;;;;17.85;50.48;100744.66;4941374;29;825;-53
2022/06/29 09:04:42;;;;;;;;;;;;;;;17.85;49.72;100736.41;4961402;28;1153;-48
2022/06/29 09:07:07;;;;;;;;;;;;;;;18.76;50.92;100736.06;4957319;28;1902;-50
2022/06/29 09:09:52;;;;;;;;;;;;;;;18.18;51.18;100734.88;4960149;28;1023;-55
2022/06/29 09:12:18;;;;;;;;;;;;;;;18.12;50.26;100736.84;4959674;28;1747;-51
2022/06/29 09:14:43;;;;;;;;;;;;;;;17.97;49.95;100725.13;4958410;29;1038;-50
2022/06/29 09:17:10;;;;;;;;;;;;;;;18.85;51.17;100728.03;4958912;29;960;-52
2022/06/29 09:19:35;;;;;;;;;;;;;;;18.22;51.52;100732.38;4959091;28;1165;-55
2022/06/29 09:22:01;;;;;;;;;;;;;;;18.07;50.72;100731.38;4954853;29;933;-52
2022/06/29 09:24:28;;;;;;;;;;;;;;;18.06;50.24;100718.72;4959059;28;1066;-52
2022/06/29 09:27:03;;;;;;;;;;;;;;;18.02;49.85;100714.06;4957932;28;1956;-52
2022/06/29 09:29:32;;;;;;;;;;;;;;;17.94;49.37;100716.31;4955351;28;1204;-51
2022/06/29 09:32:06;;;;;;;;;;;;;;;17.92;49.12;100713.03;4958298;28;1247;-52
2022/06/29 09:34:32;;;;;;;;;;;;;;;17.94;49.00;100710.00;4958848;28;1145;-51
2022/06/29 09:36:58;;;;;;;;;;;;;;;17.88;48.87;100708.34;4955560;28;1318;-53
2022/06/29 09:39:47;;;;;;;;;;;;;;;17.85;48.78;100700.66;4960861;28;1322;-54
2022/06/29 09:42:13;;;;;;;;;;;;;;;17.81;48.53;100694.91;4950599;28;1904;-52
2022/06/29 09:44:39;;;;;;;;;;;;;;;17.84;48.56;100704.50;4960470;28;1576;-49
2022/06/29 09:47:08;;;;;;;;;;;;;;;17.72;48.56;100691.09;4960267;28;1879;-51
2022/06/29 09:49:34;;;;;;;;;;;;;;;17.71;48.70;100684.78;4956117;28;1465;-49
2022/06/29 09:52:00;;;;;;;;;;;;;;;17.73;48.41;100690.00;4956475;28;1240;-46
2022/06/29 09:54:32;;;;;;;;;;;;;;;18.41;49.67;100686.53;4958788;28;1276;-53
2022/06/29 09:56:57;;;;;;;;;;;;;;;18.02;49.66;100679.13;4958741;28;1366;-50
2022/06/29 10:04:57;;;;;;;;;;;;;;;18.11;50.23;100680.16;4962005;28;1046;-51
2022/06/29 10:07:23;;;;;;;;;;;;;;;18.05;49.54;100670.31;4948318;28;1902;-53
2022/06/29 10:09:48;;;;;;;;;;;;;;;18.04;49.22;100676.09;4962345;28;1181;-52
2022/06/29 10:15:14;;;;;;;;;;;;;;;17.94;48.61;100685.25;4951653;28;1299;-55
2022/06/29 10:17:42;;;;;;;;;;;;;;;17.93;48.62;100694.59;4948459;28;1188;-55
2022/06/29 10:20:08;;;;;;;;;;;;;;;17.86;48.79;100685.81;4961076;28;991;-56
2022/06/29 10:22:33;;;;;;;;;;;;;;;17.83;48.53;100683.63;4956726;28;1059;-56
2022/06/29 10:25:02;;;;;;;;;;;;;;;17.91;48.29;100683.88;4957619;28;1355;-53
2022/06/29 10:27:28;;;;;;;;;;;;;;;17.74;48.50;100678.72;4956890;29;1883;-56
2022/06/29 10:30:13;;;;;;;;;;;;;;;17.82;48.23;100681.97;4963980;28;971;-54
2022/06/29 10:32:39;;;;;;;;;;;;;;;17.74;48.46;100678.72;4959306;28;1708;-58
2022/06/29 10:35:07;;;;;;;;;;;;;;;17.72;48.05;100669.91;4957241;29;1235;-57
2022/06/29 10:37:33;;;;;;;;;;;;;;;17.78;47.96;100676.22;4941016;29;985;-54
2022/06/29 10:40:00;;;;;;;;;;;;;;;17.75;48.04;100671.28;4957239;28;1370;-55
2022/06/29 10:45:14;;;;;;;;;;;;;;;18.37;48.72;100674.47;4956474;28;1235;-53
2022/06/29 10:47:55;;;;;;;;;;;;;;;18.29;49.63;100669.56;4956718;28;1902;-48
2022/06/29 10:50:24;;;;;;;;;;;;;;;17.99;49.43;100673.38;4958572;28;1171;-52
2022/06/29 10:52:51;;;;;;;;;;;;;;;17.97;48.92;100665.41;4958205;28;1183;-54
2022/06/29 10:55:16;;;;;;;;;;;;;;;18.02;48.77;100661.78;4959442;28;1161;-53
2022/06/29 10:57:42;;;;;;;;;;;;;;;17.86;48.71;100661.88;4961804;28;1304;-53
2022/06/29 11:00:10;;;;;;;;;;;;;;;17.87;48.50;100665.44;4959025;28;1059;-52
2022/06/29 11:02:36;;;;;;;;;;;;;;;17.84;48.31;100658.59;4956994;28;1210;-53
2022/06/29 11:05:02;;;;;;;;;;;;;;;17.87;48.31;100665.44;4958531;28;1419;-51
2022/06/29 11:12:55;;;;;;;;;;;;;;;18.13;49.35;100658.69;4962691;28;1203;-58
2022/06/29 11:15:39;;;;;;;;;;;;;;;18.12;48.88;100657.03;4958554;28;1196;-48
2022/06/29 11:18:05;;;;;;;;;;;;;;;17.97;49.46;100659.91;4951793;29;959;-52
2022/06/29 11:20:31;;;;;;;;;;;;;;;17.99;48.98;100662.38;4958640;28;1390;-55
2022/06/29 11:22:56;;;;;;;;;;;;;;;18.01;48.59;100658.22;4957412;28;888;-50
2022/06/29 11:25:22;;;;;;;;;;;;;;;18.01;48.51;100655.47;4956608;28;1070;-52
2022/06/29 11:27:48;;;;;;;;;;;;;;;17.91;48.42;100644.56;4956773;29;1899;-51
2022/06/29 11:30:18;;;;;;;;;;;;;;;17.99;48.98;100654.91;4958643;28;1306;-48
2022/06/29 11:32:44;;;;;;;;;;;;;;;18.12;50.59;100661.72;4961330;28;1171;-48
2022/06/29 11:35:10;;;;;;;;;;;;;;;18.11;49.79;100655.38;4959604;28;1082;-48
2022/06/29 11:37:36;;;;;;;;;;;;;;;18.02;49.72;100654.38;4959113;29;1114;-53
2022/06/29 11:40:02;;;;;;;;;;;;;;;18.00;49.24;100656.56;4965857;28;1027;-52
2022/06/29 11:45:15;;;;;;;;;;;;;;;18.02;48.97;100651.63;4960147;28;991;-46
2022/06/29 11:47:53;;;;;;;;;;;;;;;18.12;49.94;100640.53;4963806;28;1910;-49
2022/06/29 11:50:19;;;;;;;;;;;;;;;18.31;50.49;100642.56;4957596;28;999;-50
2022/06/29 11:52:45;;;;;;;;;;;;;;;18.24;50.95;100631.91;4960200;28;1253;-49
2022/06/29 11:55:10;;;;;;;;;;;;;;;18.28;50.26;100632.94;4962341;28;1196;-48
2022/06/29 11:57:35;;;;;;;;;;;;;;;18.19;49.75;100626.44;4943237;29;1256;-51
2022/06/29 12:00:07;;;;;;;;;;;;;;;18.13;49.43;100636.69;4960399;28;1058;-49
2022/06/29 12:02:34;;;;;;;;;;;;;;;18.08;48.92;100627.63;4960768;28;1161;-51
2022/06/29 12:05:00;;;;;;;;;;;;;;;18.07;48.80;100631.50;4963229;28;1030;-48
2022/06/29 12:07:27;;;;;;;;;;;;;;;18.10;49.00;100620.75;4958559;28;1962;-52
2022/06/29 12:09:53;;;;;;;;;;;;;;;18.14;49.99;100618.22;4962797;28;975;-49
2022/06/29 12:12:18;;;;;;;;;;;;;;;18.17;50.34;100614.88;4961921;28;1212;-50
2022/06/29 12:14:44;;;;;;;;;;;;;;;18.36;50.50;100622.47;4961852;28;876;-53
2022/06/29 12:17:10;;;;;;;;;;;;;;;18.35;50.60;100613.34;4960957;28;1023;-49
2022/06/29 12:19:35;;;;;;;;;;;;;;;18.32;49.92;100622.19;4960372;28;1168;-53
2022/06/29 12:22:01;;;;;;;;;;;;;;;18.27;49.48;100619.47;4957630;28;1509;-48
2022/06/29 12:24:26;;;;;;;;;;;;;;;18.11;49.39;100611.34;4965370;28;896;-48
2022/06/29 12:26:52;;;;;;;;;;;;;;;18.18;48.77;100626.75;4964423;28;1977;-50
2022/06/29 12:29:18;;;;;;;;;;;;;;;18.12;48.76;100618.50;4964128;28;1030;-47
2022/06/29 12:31:44;;;;;;;;;;;;;;;18.10;48.63;100619.91;4960006;29;1078;-51
2022/06/29 12:34:10;;;;;;;;;;;;;;;18.16;48.52;100607.75;4960179;28;1157;-52
2022/06/29 12:36:36;;;;;;;;;;;;;;;18.12;48.17;100607.50;4960016;28;962;-53
2022/06/29 12:39:01;;;;;;;;;;;;;;;18.11;48.30;100605.84;4959125;28;1259;-50
2022/06/29 12:41:27;;;;;;;;;;;;;;;18.10;48.17;100608.91;4961036;28;1188;-54
2022/06/29 12:43:52;;;;;;;;;;;;;;;18.23;48.78;100608.25;4958910;28;1414;-52
2022/06/29 12:46:18;;;;;;;;;;;;;;;18.57;50.05;100612.06;4959604;28;1058;-53
2022/06/29 12:48:43;;;;;;;;;;;;;;;18.33;49.66;100607.34;4961088;28;1914;-53
2022/06/29 12:51:09;;;;;;;;;;;;;;;18.16;49.42;100602.25;4962929;28;987;-52
2022/06/29 12:53:35;;;;;;;;;;;;;;;18.18;48.89;100602.78;4959144;28;1165;-50
2022/06/29 12:56:00;;;;;;;;;;;;;;;18.10;49.14;100595.97;4963707;28;1177;-49
2022/06/29 12:58:26;;;;;;;;;;;;;;;18.23;48.83;100593.66;4959203;28;999;-51
2022/06/29 13:00:52;;;;;;;;;;;;;;;18.17;48.38;100592.88;4959208;29;1244;-47
2022/06/29 13:03:17;;;;;;;;;;;;;;;18.07;48.43;100595.72;4959223;29;1002;-51
2022/06/29 13:05:43;;;;;;;;;;;;;;;18.12;48.44;100587.44;4958651;28;1102;-46